Aérodrome :
LOGIN :

S'inscrire | Disclaimer

   EN    FR    IT 

 










Légende :    VFR   VFR Marginal   IFR   IFR Intensif   IFR Très Intensif
Visi : 
Plafond : 
>= 8 km
>= 3000ft
5 à 8 km
1000 à 3000 ft
1500m à 5 km
500 à 1000 ft
800 à 1500m
200 à 500 ft
< 800m
< 200 ft
Symboles :   Orages  Brouillard  Fortes neiges  Fortes précipitations  Vent > 20 kt
SIGMETs :   Divers  Orages  Givrage  Turbulence  Onde Orograph.  Cendres Volcan.







- Altitude de l'aérodrome : 13 ft
- Code IATA : OST


EBOS - Oostend bruges Int.

DERNIER METAR :
  • 251550Z 29012KT 7000 NSC 20/16 Q1018 NOSIG

METARs EXPIRÉS :
  • 251520Z 29013KT 8000 NSC 20/17 Q1018 NOSIG
  • 251450Z 29012KT 9000 NSC 22/17 Q1018 NOSIG
  • 251420Z 30008KT 8000 NSC 23/18 Q1017 NOSIG
  • 251350Z 30008KT 7000 NSC 23/18 Q1017 NOSIG
  • 251320Z 31008KT 6000 NSC 24/19 Q1017 NOSIG

TAF TAF EBOS
Valide du 25 à 12h jusqu'au 26 à 18h UTC


251110Z 2512/2618 27012KT CAVOK
BECMG 2521/2523 35010KT
BECMG 2600/2602 BKN012
TEMPO 2602/2607 4000 BR BKN006
PROB30
TEMPO 2603/2606 2500 BKN003
BECMG 2609/2611 SCT012
Pas de NOTAMs connus pour ce terrain.



MET'MAP, la Météo Aéronautique d'un coup d'oeil ! - Copyright ORBIFLY Décembre 2007 - Disclaimer

ORBIFLY MET'MAP TEAM :

Programmation & Développement : Alexandra Zaïnal
Conception & Développement : Baudouin d'Aumeries
Co-Programmation & Développement : Marc-Olivier Méhu
Soutien technique & logistique : Manuel Goepfert

Contact : metmap@orbifly.com




SOURCES & CREDITS :

   NOAA